Time;durP1;ratioP1;P1;durP2;ratioP2;P2;SDS_P1;SDS_P2;PMS_P1;PMS_P2;Temp;Humidity;BMP_temperature;BMP_pressure;BME280_temperature;BME280_humidity;BME280_pressure;Samples;Min_cycle;Max_cycle;Signal;HPM_P1;HPM_P2
2022/06/03 00:02:03;;;;;;;12.73;8.63;;;;;;;17.18;89.85;97928.88;10333581;28;20073;-62
2022/06/03 00:07:10;;;;;;;12.40;7.47;;;;;;;17.17;89.60;97919.28;10333222;28;20515;-62
2022/06/03 00:12:41;;;;;;;12.15;7.75;;;;;;;17.15;89.69;97923.72;10332418;28;20077;-62
2022/06/03 00:18:03;;;;;;;11.35;7.80;;;;;;;17.04;89.86;97916.09;10330631;28;20077;-62
2022/06/03 00:23:37;;;;;;;13.68;8.55;;;;;;;17.06;90.28;97934.41;10333438;28;20570;-62
2022/06/03 00:28:54;;;;;;;12.00;9.15;;;;;;;17.07;90.21;97944.84;10332706;28;20053;-62
2022/06/03 00:34:21;;;;;;;12.10;8.10;;;;;;;16.96;91.45;97940.75;10332927;28;20068;-62
2022/06/03 00:39:38;;;;;;;11.00;7.72;;;;;;;16.69;92.73;97937.84;10332765;28;20077;-62
2022/06/03 00:45:08;;;;;;;9.27;7.57;;;;;;;16.58;92.63;97934.59;10331855;28;20069;-62
2022/06/03 00:50:44;;;;;;;13.25;8.82;;;;;;;16.55;92.57;97943.41;10316621;28;20081;-62
2022/06/03 00:56:01;;;;;;;12.35;9.27;;;;;;;16.47;92.61;97940.09;10331844;28;20072;-62
2022/06/03 01:01:03;;;;;;;12.38;8.30;;;;;;;16.45;92.64;97940.13;10332527;28;20080;-62
2022/06/03 01:06:24;;;;;;;15.02;9.15;;;;;;;16.49;92.55;97927.84;10332185;28;20061;-62
2022/06/03 01:11:53;;;;;;;11.30;8.70;;;;;;;16.49;92.79;97933.94;10331069;28;20527;-62
2022/06/03 01:17:22;;;;;;;16.90;8.88;;;;;;;16.50;92.97;97926.94;10295213;28;20061;-63
2022/06/03 01:22:58;;;;;;;14.52;9.18;;;;;;;16.49;92.96;97912.97;10329726;28;20103;-62
2022/06/03 01:28:06;;;;;;;14.52;9.15;;;;;;;16.49;93.35;97918.22;10338609;28;20069;-62
2022/06/03 01:33:23;;;;;;;16.92;9.23;;;;;;;16.46;93.74;97917.41;10338863;28;20084;-62
2022/06/03 01:38:53;;;;;;;17.27;9.68;;;;;;;16.39;94.43;97923.69;10338286;28;20057;-62
2022/06/03 01:44:20;;;;;;;15.90;9.68;;;;;;;16.26;95.28;97915.25;10337082;28;20076;-62
2022/06/03 01:49:34;;;;;;;15.85;10.02;;;;;;;16.22;95.21;97919.66;10338186;28;20068;-62
2022/06/03 01:55:04;;;;;;;17.60;10.05;;;;;;;16.25;95.18;97923.97;10335607;28;20103;-62
2022/06/03 02:00:32;;;;;;;16.05;11.52;;;;;;;16.22;95.39;97924.91;10338213;28;20072;-62
2022/06/03 02:05:56;;;;;;;20.52;11.15;;;;;;;16.18;95.37;97922.38;10337773;28;20065;-62
2022/06/03 02:10:57;;;;;;;14.70;10.10;;;;;;;16.15;95.50;97917.22;10338295;28;20063;-62
2022/06/03 02:16:21;;;;;;;14.55;9.38;;;;;;;16.15;95.04;97917.22;10337529;28;20056;-62
2022/06/03 02:21:38;;;;;;;15.25;9.85;;;;;;;16.13;94.96;97913.75;10334877;28;20089;-62
2022/06/03 02:27:04;;;;;;;18.20;10.15;;;;;;;16.11;95.03;97926.88;10336778;28;20065;-62
2022/06/03 02:32:31;;;;;;;18.00;10.10;;;;;;;16.12;95.22;97933.84;10336838;28;20069;-62
2022/06/03 02:37:46;;;;;;;15.98;10.27;;;;;;;15.98;96.71;97936.75;10336262;28;20072;-62
2022/06/03 02:43:04;;;;;;;16.60;10.65;;;;;;;15.98;96.41;97935.88;10335586;28;20072;-62
2022/06/03 02:48:15;;;;;;;15.65;10.27;;;;;;;15.97;96.52;97944.63;10335902;28;20057;-62
2022/06/03 02:53:23;;;;;;;17.60;10.43;;;;;;;16.00;96.23;97950.66;10334682;28;20068;-62
2022/06/03 02:58:46;;;;;;;16.40;10.70;;;;;;;16.00;95.74;97949.81;10334599;28;20550;-62
2022/06/03 03:04:45;;;;;;;21.33;10.02;;;;;;;15.90;96.56;97948.25;10335544;28;20069;-63
2022/06/03 03:10:09;;;;;;;16.58;9.93;;;;;;;15.87;96.80;97938.69;10327300;28;20071;-63
2022/06/03 03:15:29;;;;;;;15.57;10.15;;;;;;;15.89;96.91;97942.16;10333738;28;20493;-63
2022/06/03 03:20:59;;;;;;;17.00;11.38;;;;;;;15.98;96.68;97951.59;10334862;28;20089;-63
2022/06/03 03:26:15;;;;;;;;;;;;;;;16.07;96.41;97954.88;10335402;28;20101;-63
2022/06/03 03:31:29;;;;;;;18.02;11.70;;;;;;;16.16;96.06;97950.34;10334556;28;19960;-63
2022/06/03 03:37:05;;;;;;;16.33;11.02;;;;;;;16.25;95.92;97952.78;10334657;28;20061;-63
2022/06/03 03:42:42;;;;;;;18.67;9.73;;;;;;;16.38;95.83;97961.25;10333376;28;20064;-63
2022/06/03 03:48:23;;;;;;;18.25;10.88;;;;;;;16.22;95.83;97930.13;10332589;28;20087;-63
2022/06/03 03:53:29;;;;;;;16.83;9.90;;;;;;;16.59;95.36;97971.25;10296316;28;20081;-63
2022/06/03 03:58:40;;;;;;;20.02;10.93;;;;;;;16.71;95.10;97985.84;10333898;28;20461;-63
2022/06/03 04:03:52;;;;;;;17.92;10.40;;;;;;;16.83;94.75;97990.84;10332234;28;20556;-63
2022/06/03 04:09:28;;;;;;;15.20;9.55;;;;;;;16.95;93.95;97989.72;10334064;28;20061;-63
2022/06/03 04:14:43;;;;;;;17.73;9.68;;;;;;;17.05;93.47;97991.25;10333518;28;20065;-63
2022/06/03 04:19:54;;;;;;;16.50;9.60;;;;;;;17.12;93.52;97991.94;10332013;28;20107;-63
2022/06/03 04:25:14;;;;;;;15.90;9.65;;;;;;;17.23;93.06;98008.28;10333820;28;20060;-63
2022/06/03 04:30:44;;;;;;;14.07;8.93;;;;;;;17.28;92.70;98018.66;10332528;28;20065;-63
2022/06/03 04:36:27;;;;;;;17.52;8.40;;;;;;;17.30;92.41;98007.25;10332824;28;20068;-63
2022/06/03 04:42:04;;;;;;;22.13;15.85;;;;;;;17.19;92.83;98009.28;10327560;28;20084;-63
2022/06/03 04:47:44;;;;;;;14.63;8.93;;;;;;;17.52;92.32;98014.63;10331222;28;20057;-63
2022/06/03 04:52:46;;;;;;;15.50;9.30;;;;;;;17.66;91.18;98022.09;10324470;28;20072;-63
2022/06/03 04:58:11;;;;;;;14.00;9.93;;;;;;;17.80;91.14;98034.91;10330663;28;20069;-63
2022/06/03 05:03:32;;;;;;;18.13;10.02;;;;;;;17.87;91.42;98034.75;10339841;28;20065;-63
2022/06/03 05:09:03;;;;;;;17.63;10.02;;;;;;;17.92;90.95;98043.34;10340810;28;20045;-63
2022/06/03 05:14:37;;;;;;;13.15;9.55;;;;;;;18.04;90.25;98047.44;10334896;28;20076;-63
2022/06/03 05:19:55;;;;;;;18.92;9.40;;;;;;;18.16;90.42;98054.97;10312981;28;20073;-63
2022/06/03 05:25:12;;;;;;;14.48;9.63;;;;;;;18.43;90.00;98054.25;10337476;28;20059;-63
2022/06/03 05:30:23;;;;;;;14.48;10.32;;;;;;;18.71;89.73;98054.38;10338567;28;20049;-63
2022/06/03 05:35:27;;;;;;;13.00;9.45;;;;;;;18.87;88.68;98053.00;10338690;28;20064;-63
2022/06/03 05:47:04;;;;;;;16.98;9.82;;;;;;;19.21;86.11;98038.84;10315788;28;20053;-63
2022/06/03 05:52:15;;;;;;;15.98;10.88;;;;;;;19.43;84.68;98042.50;10322523;28;20077;-63
2022/06/03 05:57:17;;;;;;;13.82;9.52;;;;;;;19.57;84.24;98030.72;10336992;28;20061;-63
2022/06/03 06:02:31;;;;;;;15.48;10.05;;;;;;;19.81;83.85;98039.56;10335767;28;20441;-63
2022/06/03 06:07:49;;;;;;;14.70;10.18;;;;;;;20.02;82.71;98037.97;10338689;28;20057;-63
2022/06/03 06:13:30;;;;;;;15.13;9.30;;;;;;;20.15;81.43;98031.34;10335784;28;20072;-63
2022/06/03 06:18:50;;;;;;;12.25;8.07;;;;;;;20.22;81.10;98029.38;10333466;28;20077;-63
2022/06/03 06:24:18;;;;;;;15.43;9.07;;;;;;;20.45;80.28;98018.88;10337577;28;20072;-63
2022/06/03 06:29:34;;;;;;;10.32;6.85;;;;;;;20.73;78.20;98023.16;10333765;28;20076;-63
2022/06/03 06:34:52;;;;;;;14.65;8.20;;;;;;;20.81;77.22;98020.22;10337293;28;20500;-63
2022/06/03 06:40:00;;;;;;;10.25;6.93;;;;;;;21.07;76.65;98013.91;10335355;28;20071;-63
2022/06/03 06:45:20;;;;;;;13.07;7.23;;;;;;;21.39;76.23;98009.19;10336392;28;20057;-63
2022/06/03 06:50:27;;;;;;;14.98;7.35;;;;;;;21.54;75.38;98021.75;10334416;28;20310;-63
2022/06/03 06:55:44;;;;;;;11.10;7.93;;;;;;;21.88;74.75;98018.56;10334044;28;20663;-63
2022/06/03 07:00:45;;;;;;;12.23;7.97;;;;;;;22.04;74.84;97980.91;10331528;28;20072;-63
2022/06/03 07:05:54;;;;;;;10.20;8.07;;;;;;;22.39;73.81;97998.75;10334444;28;20123;-63
2022/06/03 07:11:02;;;;;;;13.10;8.40;;;;;;;22.68;71.60;98003.63;10333637;28;20068;-63
2022/06/03 07:22:02;;;;;;;12.85;7.35;;;;;;;23.78;69.51;98002.78;10334942;28;20092;-63
2022/06/03 07:27:09;;;;;;;12.20;6.90;;;;;;;24.25;64.41;97967.69;10335963;28;20053;-63
2022/06/03 07:32:19;;;;;;;12.52;6.72;;;;;;;24.94;61.86;97994.94;10333409;28;20076;-63
2022/06/03 07:37:31;;;;;;;12.55;6.60;;;;;;;25.43;62.20;97998.34;10329574;28;20855;-63
2022/06/03 07:42:41;;;;;;;10.30;6.60;;;;;;;25.48;59.20;98000.72;10329495;28;20068;-63
2022/06/03 07:47:41;;;;;;;10.30;6.47;;;;;;;25.69;58.66;98004.84;10330637;28;20064;-63
2022/06/03 07:52:46;;;;;;;9.93;6.43;;;;;;;25.80;58.91;98021.97;10329342;28;20037;-63
2022/06/03 07:57:55;;;;;;;9.45;6.93;;;;;;;25.61;58.62;98016.88;10334267;28;20076;-63
2022/06/03 08:03:22;;;;;;;8.93;6.63;;;;;;;25.42;60.01;98022.34;10333911;28;20069;-63
2022/06/03 08:13:41;;;;;;;11.80;7.28;;;;;;;25.37;61.56;98032.38;10326905;28;20076;-63
2022/06/03 08:18:43;;;;;;;9.25;6.13;;;;;;;25.40;60.98;98030.41;10331023;28;20077;-63
2022/06/03 08:23:44;;;;;;;10.82;7.03;;;;;;;25.38;61.49;98002.22;10330653;28;20067;-63
2022/06/03 08:28:48;;;;;;;8.45;6.82;;;;;;;25.58;60.89;98028.53;10330442;28;20493;-63
2022/06/03 08:34:00;;;;;;;8.85;5.95;;;;;;;25.37;59.36;98025.28;10329317;28;20061;-63
2022/06/03 08:39:18;;;;;;;12.02;7.05;;;;;;;25.33;59.60;98013.09;10329508;28;20137;-63
2022/06/03 08:44:45;;;;;;;13.77;6.93;;;;;;;25.59;59.81;98029.38;10329932;28;20061;-63
2022/06/03 08:49:56;;;;;;;10.02;6.53;;;;;;;25.59;58.75;98024.91;10343725;28;20149;-63
2022/06/03 08:55:00;;;;;;;10.35;6.85;;;;;;;25.41;58.20;98031.25;10330495;28;20065;-63
2022/06/03 09:00:07;;;;;;;10.32;6.90;;;;;;;25.57;58.34;98037.44;10291351;28;20326;-64
2022/06/03 09:05:18;;;;;;;12.38;7.03;;;;;;;25.78;58.24;98039.81;10290952;28;20065;-63
2022/06/03 09:10:41;;;;;;;12.27;7.05;;;;;;;25.49;55.68;98010.44;10330362;28;20503;-63
2022/06/03 09:15:44;;;;;;;8.57;6.70;;;;;;;25.92;55.89;98031.88;10307295;28;20131;-63
2022/06/03 09:21:00;;;;;;;7.90;5.90;;;;;;;26.05;51.87;98027.53;10319171;28;20128;-63
2022/06/03 09:26:00;;;;;;;12.07;7.13;;;;;;;26.07;53.01;98035.44;10329306;28;20069;-63
2022/06/03 09:31:03;;;;;;;12.15;6.80;;;;;;;26.16;53.31;98041.06;10327112;28;20071;-63
2022/06/03 09:36:13;;;;;;;13.07;6.93;;;;;;;26.16;50.67;98030.41;10327872;28;20077;-63
2022/06/03 09:41:12;;;;;;;8.32;6.25;;;;;;;26.35;52.51;98034.66;10328686;28;20546;-63
2022/06/03 09:46:13;;;;;;;11.02;6.55;;;;;;;26.45;52.83;98024.31;10330529;28;20049;-63
2022/06/03 09:51:55;;;;;;;11.80;7.25;;;;;;;26.16;52.47;98037.56;10336028;28;20057;-64
2022/06/03 09:56:46;;;;;;;9.80;7.18;;;;;;;26.28;53.00;98022.69;10332113;28;20120;-63
2022/06/03 10:01:46;;;;;;;9.27;6.45;;;;;;;26.51;52.01;98024.78;10337086;28;20065;-63
2022/06/03 10:06:50;;;;;;;9.25;6.60;;;;;;;26.48;52.08;98024.97;10336724;28;20799;-63
2022/06/03 10:17:09;;;;;;;10.13;6.50;;;;;;;26.65;52.02;98020.41;10327602;28;20121;-63
2022/06/03 10:22:09;;;;;;;9.60;6.50;;;;;;;26.75;50.69;98027.72;10330235;28;20483;-63
2022/06/03 10:27:08;;;;;;;11.15;7.13;;;;;;;26.72;51.67;98035.91;10326313;28;20492;-63
2022/06/03 10:32:07;;;;;;;10.77;6.88;;;;;;;26.83;51.94;98035.25;10330269;28;20033;-63
2022/06/03 10:37:10;;;;;;;9.15;6.47;;;;;;;26.92;51.91;98005.38;10330660;28;20030;-63
2022/06/03 10:42:18;;;;;;;9.15;6.95;;;;;;;27.19;51.31;98024.09;10330649;28;20065;-63
2022/06/03 10:47:20;;;;;;;7.90;6.20;;;;;;;27.42;50.00;98005.72;10329371;28;20080;-63
2022/06/03 11:03:22;;;;;;;10.25;6.35;;;;;;;27.82;47.90;98011.09;10323767;28;20123;-63
2022/06/03 11:08:21;;;;;;;10.05;6.88;;;;;;;27.95;48.19;98003.13;10328612;28;20112;-63
2022/06/03 11:13:29;;;;;;;9.10;6.78;;;;;;;27.80;47.93;97971.22;10326313;28;20116;-63
2022/06/03 11:18:32;;;;;;;9.60;7.10;;;;;;;27.91;49.46;97978.47;10323060;28;20603;-63
2022/06/03 11:23:31;;;;;;;8.90;6.25;;;;;;;28.03;46.45;97976.78;10323573;28;20123;-63
2022/06/03 11:28:37;;;;;;;11.35;6.38;;;;;;;27.98;47.58;97954.91;10321699;28;20045;-63
2022/06/03 11:34:01;;;;;;;8.38;6.60;;;;;;;28.20;46.82;97960.50;10323512;28;20144;-63
2022/06/03 11:39:29;;;;;;;8.82;5.97;;;;;;;28.09;45.06;97952.38;10322959;28;20132;-63
2022/06/03 11:44:53;;;;;;;9.95;6.63;;;;;;;28.00;47.73;97948.50;10322515;28;20129;-63
2022/06/03 11:49:53;;;;;;;10.95;6.97;;;;;;;28.23;47.88;97932.75;10337667;28;20184;-63
2022/06/03 11:54:54;;;;;;;8.95;6.07;;;;;;;28.26;45.34;97935.19;10322923;28;20116;-63
2022/06/03 12:00:03;;;;;;;11.43;7.20;;;;;;;27.78;46.81;97926.97;10322706;28;20120;-63
2022/06/03 12:05:02;;;;;;;9.13;7.07;;;;;;;27.89;48.29;97966.22;10321477;28;20112;-63
2022/06/03 12:10:26;;;;;;;12.88;7.30;;;;;;;27.95;49.14;97971.13;10322810;28;20108;-64
2022/06/03 12:15:30;;;;;;;8.95;6.40;;;;;;;27.90;47.25;97981.28;10323621;28;20108;-63
2022/06/03 12:20:32;;;;;;;9.82;6.22;;;;;;;27.96;45.26;97972.81;10312982;28;20124;-63
2022/06/03 12:25:41;;;;;;;9.07;6.55;;;;;;;28.29;46.22;97968.81;10320738;28;20125;-63
2022/06/03 12:30:43;;;;;;;7.35;5.90;;;;;;;28.52;42.61;97978.72;10325160;28;20124;-64
2022/06/03 12:35:42;;;;;;;8.63;5.65;;;;;;;28.55;40.10;97974.97;10321913;28;20121;-64
2022/06/03 12:40:41;;;;;;;7.80;5.97;;;;;;;28.35;41.32;97955.06;10321713;28;20038;-64
2022/06/03 12:45:40;;;;;;;8.73;5.93;;;;;;;28.56;40.94;97961.53;10322694;28;20033;-64
2022/06/03 12:51:33;;;;;;;9.18;6.38;;;;;;;28.72;44.45;97950.66;10322308;28;20533;-63
2022/06/03 12:56:51;;;;;;;11.00;6.00;;;;;;;28.74;44.57;97948.72;10306452;28;20744;-64
2022/06/03 13:02:28;;;;;;;8.43;5.87;;;;;;;28.50;42.43;97932.63;10323102;28;20116;-64
2022/06/03 13:07:27;;;;;;;9.27;5.65;;;;;;;28.64;41.33;97923.59;10288994;28;20713;-63
2022/06/03 13:12:32;;;;;;;5.50;4.60;;;;;;;28.36;38.80;97890.91;10325229;28;20482;-64
2022/06/03 13:18:13;;;;;;;10.27;5.93;;;;;;;28.66;42.07;97914.53;10325764;28;20136;-64
2022/06/03 13:23:40;;;;;;;8.38;6.00;;;;;;;29.01;43.09;97913.78;10333998;28;20520;-64
2022/06/03 13:28:40;;;;;;;5.85;4.65;;;;;;;28.86;39.40;97917.59;10332505;28;20487;-63
2022/06/03 13:34:01;;;;;;;5.05;4.18;;;;;;;28.95;35.70;97927.63;10334127;28;20068;-64
2022/06/03 13:39:01;;;;;;;7.57;5.03;;;;;;;28.57;38.75;97917.00;10333354;28;20228;-64
2022/06/03 13:44:06;;;;;;;9.85;5.50;;;;;;;28.74;39.80;97922.03;10333327;28;20133;-64
2022/06/03 13:49:25;;;;;;;10.18;7.90;;;;;;;28.80;44.67;97921.56;10331721;28;20589;-64
2022/06/03 13:54:37;;;;;;;10.65;7.47;;;;;;;28.59;46.15;97934.59;10331104;28;20125;-64
2022/06/03 13:59:41;;;;;;;10.25;7.43;;;;;;;28.64;46.89;97904.91;10330573;28;20076;-64
2022/06/03 14:05:03;;;;;;;9.07;7.72;;;;;;;28.28;47.79;97911.09;10331903;28;20064;-64
2022/06/03 14:10:14;;;;;;;11.55;7.50;;;;;;;28.34;48.09;97924.00;10331851;28;20482;-64
2022/06/03 14:15:22;;;;;;;10.15;7.55;;;;;;;28.08;49.97;97929.34;10328083;28;20104;-64
2022/06/03 14:20:27;;;;;;;13.63;7.50;;;;;;;27.62;52.37;97922.66;10327693;28;20167;-64
2022/06/03 14:25:44;;;;;;;10.55;7.50;;;;;;;28.05;52.36;97942.84;10328515;28;20940;-64
2022/06/03 14:30:58;;;;;;;14.57;7.72;;;;;;;28.05;52.82;97945.53;10324216;28;21128;-64
2022/06/03 14:36:02;;;;;;;12.25;7.15;;;;;;;28.31;52.00;97948.22;10323518;28;20662;-64
2022/06/03 14:41:05;;;;;;;10.48;7.63;;;;;;;28.03;52.23;97952.78;10328450;28;20561;-64
2022/06/03 14:46:13;;;;;;;10.07;7.65;;;;;;;28.05;50.85;97958.84;10328424;28;20108;-64
2022/06/03 14:51:32;;;;;;;;;;;;;;;28.29;48.09;97964.34;10326922;28;20112;-64
2022/06/03 14:56:36;;;;;;;7.45;6.05;;;;;;;28.04;48.11;97949.16;10266680;28;20042;-63
2022/06/03 15:01:50;;;;;;;13.20;7.75;;;;;;;28.09;48.10;97947.06;10292350;28;20593;-64
2022/06/03 15:06:55;;;;;;;8.98;6.88;;;;;;;27.80;48.31;97952.56;10327504;28;20113;-63
2022/06/03 15:12:01;;;;;;;10.80;6.85;;;;;;;27.66;49.89;97941.09;10300206;28;20124;-63
2022/06/03 15:17:03;;;;;;;10.52;7.78;;;;;;;27.79;50.02;97980.16;10327455;28;20112;-64
2022/06/03 15:22:06;;;;;;;10.02;6.72;;;;;;;27.48;50.69;97989.38;10327065;28;20862;-64
2022/06/03 15:27:06;;;;;;;10.73;7.50;;;;;;;27.29;51.74;97968.38;10340680;28;20660;-63
2022/06/03 15:32:06;;;;;;;12.57;7.43;;;;;;;27.15;52.70;97973.75;10324884;28;20199;-64
2022/06/03 15:37:07;;;;;;;11.65;7.80;;;;;;;26.86;52.48;97960.53;10325155;28;20156;-66
2022/06/03 15:42:19;;;;;;;11.70;7.97;;;;;;;26.71;53.07;97953.47;10325040;28;20579;-64
2022/06/03 15:47:23;;;;;;;11.48;7.90;;;;;;;26.64;55.05;97965.47;10325340;28;20128;-63
2022/06/03 15:52:22;;;;;;;11.35;7.95;;;;;;;26.36;55.46;97929.94;10324654;28;20124;-63
2022/06/03 15:57:40;;;;;;;11.93;7.68;;;;;;;26.52;56.13;97959.94;10324342;28;20124;-63
2022/06/03 16:02:54;;;;;;;9.93;7.82;;;;;;;26.49;55.21;97972.63;10324093;28;20124;-63
2022/06/03 16:07:59;;;;;;;12.25;7.57;;;;;;;26.42;55.67;97961.50;10324343;28;20125;-63
2022/06/03 16:13:22;;;;;;;11.98;8.40;;;;;;;26.22;56.81;97969.84;10325055;28;20112;-63
2022/06/03 16:18:39;;;;;;;12.70;8.10;;;;;;;26.18;57.45;97971.78;10324903;28;20237;-63
2022/06/03 16:23:49;;;;;;;10.32;8.00;;;;;;;26.27;57.74;97984.56;10324245;28;20136;-63
2022/06/03 16:29:10;;;;;;;12.55;8.85;;;;;;;26.09;59.45;97991.84;10324532;28;20108;-63
2022/06/03 16:34:18;;;;;;;16.02;10.35;;;;;;;26.02;60.48;98000.25;10320361;28;20080;-63
2022/06/03 16:39:41;;;;;;;14.00;9.13;;;;;;;25.97;60.97;98012.97;10324556;28;20116;-63
2022/06/03 16:44:48;;;;;;;11.07;9.25;;;;;;;25.95;61.27;97983.84;10324027;28;20603;-63
2022/06/03 16:50:00;;;;;;;12.25;9.50;;;;;;;26.16;62.60;98000.31;10324455;28;20108;-63
2022/06/03 16:55:15;;;;;;;11.43;8.40;;;;;;;26.33;63.10;98001.97;10326605;28;21183;-63
2022/06/03 17:00:21;;;;;;;14.82;8.73;;;;;;;26.48;62.56;97998.34;10346986;28;20156;-63
2022/06/03 17:05:21;;;;;;;16.85;9.85;;;;;;;26.55;62.95;97980.19;10332522;28;20635;-63
2022/06/03 17:10:27;;;;;;;13.70;9.75;;;;;;;26.70;61.93;98005.88;10324962;28;20120;-63
2022/06/03 17:15:28;;;;;;;12.73;9.25;;;;;;;26.62;61.81;98001.97;10332512;28;20124;-63
2022/06/03 17:20:33;;;;;;;15.95;9.05;;;;;;;26.49;61.81;98018.72;10330156;28;20128;-63
2022/06/03 17:25:42;;;;;;;14.18;8.35;;;;;;;26.08;62.85;98029.16;10328226;28;20144;-63
2022/06/03 17:31:22;;;;;;;10.50;9.00;;;;;;;25.89;63.58;98030.25;10323087;28;20275;-63
2022/06/03 17:36:28;;;;;;;14.13;9.55;;;;;;;25.67;64.81;98035.97;10312436;28;20498;-64
2022/06/03 17:41:41;;;;;;;14.88;9.90;;;;;;;25.38;65.53;98024.31;10322089;28;20144;-63
2022/06/03 17:47:08;;;;;;;13.70;9.95;;;;;;;25.28;66.51;98034.59;10320940;28;20116;-63
2022/06/03 17:57:47;;;;;;;15.60;11.45;;;;;;;24.93;67.60;98038.38;10321488;28;20112;-63
2022/06/03 18:03:20;;;;;;;15.82;12.23;;;;;;;24.63;69.02;98033.75;10323494;28;20129;-63
2022/06/03 18:08:31;;;;;;;15.95;11.63;;;;;;;24.42;69.71;98055.16;10321681;28;20163;-63
2022/06/03 18:13:30;;;;;;;19.95;12.75;;;;;;;24.11;70.86;98062.97;10326882;28;20116;-63
2022/06/03 18:18:32;;;;;;;17.50;12.20;;;;;;;23.72;71.90;98048.13;10324046;28;20591;-63
2022/06/03 18:23:59;;;;;;;18.00;12.25;;;;;;;23.44;72.60;98054.75;10319089;28;20125;-63
2022/06/03 18:29:21;;;;;;;17.35;14.15;;;;;;;23.33;73.07;98078.25;10318885;28;20116;-63
2022/06/03 18:34:47;;;;;;;15.32;12.00;;;;;;;23.12;73.76;98080.97;10325314;28;20186;-63
2022/06/03 18:40:09;;;;;;;14.43;11.63;;;;;;;22.91;74.47;98084.63;10325174;28;20140;-63
2022/06/03 18:45:25;;;;;;;14.73;10.48;;;;;;;22.73;75.09;98081.00;10323670;28;20132;-63
2022/06/03 18:50:43;;;;;;;14.93;10.95;;;;;;;22.57;75.54;98084.31;10325079;28;20112;-63
2022/06/03 18:55:51;;;;;;;14.75;10.43;;;;;;;22.43;76.13;98094.63;10324323;28;20132;-63
2022/06/03 19:01:10;;;;;;;12.70;10.50;;;;;;;22.27;76.58;98105.03;10322808;28;20125;-63
2022/06/03 19:06:18;;;;;;;14.60;11.43;;;;;;;22.14;76.91;98109.13;10320681;28;20147;-63
2022/06/03 19:11:20;;;;;;;14.20;11.70;;;;;;;22.00;77.74;98107.06;10322851;28;20215;-63
2022/06/03 19:16:30;;;;;;;15.68;11.32;;;;;;;21.83;78.35;98102.44;10317442;28;20116;-63
2022/06/03 19:21:58;;;;;;;14.65;12.23;;;;;;;21.70;79.11;98109.97;10311725;28;20128;-63
2022/06/03 19:26:57;;;;;;;15.68;11.32;;;;;;;21.60;79.46;98094.59;10320046;28;20136;-63
2022/06/03 19:32:03;;;;;;;14.55;11.75;;;;;;;21.46;79.83;98080.16;10318560;28;20140;-63
2022/06/03 19:37:14;;;;;;;13.18;11.55;;;;;;;21.33;80.54;98073.63;10317928;28;20199;-63
2022/06/03 19:42:31;;;;;;;18.50;12.65;;;;;;;21.20;81.30;98080.28;10319905;28;20164;-63
2022/06/03 19:47:58;;;;;;;16.35;12.93;;;;;;;21.08;82.01;98079.84;10317856;28;20112;-63
2022/06/03 19:53:07;;;;;;;18.98;13.55;;;;;;;20.93;82.70;98075.13;10318836;28;20112;-63
2022/06/03 19:58:17;;;;;;;18.77;13.93;;;;;;;20.86;83.52;98086.84;10318448;28;20191;-63
2022/06/03 20:03:16;;;;;;;19.77;14.65;;;;;;;20.77;84.71;98092.44;10334172;28;20128;-63
2022/06/03 20:08:48;;;;;;;16.70;13.63;;;;;;;20.74;nan;98096.06;10316881;28;20036;-63
2022/06/03 20:13:53;;;;;;;16.35;13.57;;;;;;;20.77;84.54;98105.63;10285153;28;20041;-63
2022/06/03 20:19:07;;;;;;;18.13;14.27;;;;;;;20.71;84.82;98098.81;10315125;28;20898;-63
2022/06/03 20:24:21;;;;;;;23.38;15.48;;;;;;;20.59;85.91;98100.13;10323332;28;20143;-63
2022/06/03 20:29:58;;;;;;;17.95;15.27;;;;;;;20.57;85.92;98106.38;10317141;28;20112;-63
2022/06/03 20:35:15;;;;;;;19.60;15.65;;;;;;;20.46;86.98;98114.66;10271368;28;20121;-63
2022/06/03 20:40:39;;;;;;;20.20;13.70;;;;;;;20.35;87.61;98106.22;10307991;28;20148;-63
2022/06/03 20:45:58;;;;;;;15.73;13.38;;;;;;;20.24;88.24;98115.38;10313540;28;20671;-63
2022/06/03 20:51:04;;;;;;;17.00;13.20;;;;;;;20.12;88.25;98105.25;10317294;28;20064;-63
2022/06/03 20:56:18;;;;;;;16.42;13.13;;;;;;;20.06;88.01;98127.38;10319313;28;20124;-63
2022/06/03 21:01:29;;;;;;;16.65;12.30;;;;;;;20.02;87.50;98122.25;10316724;28;20697;-63
2022/06/03 21:17:09;;;;;;;16.85;14.52;;;;;;;19.53;91.77;98143.09;10317524;28;20670;-63
2022/06/03 21:22:33;;;;;;;17.52;14.57;;;;;;;19.38;92.89;98139.16;10315573;28;20149;-63
2022/06/03 21:27:34;;;;;;;17.25;13.82;;;;;;;19.26;93.13;98118.50;10314699;28;20132;-63
2022/06/03 21:32:36;;;;;;;17.33;14.52;;;;;;;19.33;92.16;98140.22;10320362;28;20121;-63
2022/06/03 21:37:47;;;;;;;26.08;17.75;;;;;;;19.27;93.48;98141.25;10318653;28;20100;-63
2022/06/03 21:43:27;;;;;;;19.40;17.17;;;;;;;19.19;94.87;98145.91;10319689;28;20148;-63
2022/06/03 21:48:32;;;;;;;;;;;;;;;19.16;95.19;98130.22;10277784;28;20116;-63
2022/06/03 21:54:01;;;;;;;23.35;16.95;;;;;;;19.22;94.76;98130.00;10329031;28;20016;-63
2022/06/03 21:59:22;;;;;;;21.20;17.27;;;;;;;19.19;94.41;98120.44;10338632;28;20037;-63
2022/06/03 22:04:23;;;;;;;23.25;18.38;;;;;;;19.29;93.94;98126.28;10324139;28;20124;-63
2022/06/03 22:09:22;;;;;;;26.15;19.45;;;;;;;19.22;94.08;98124.75;10321315;28;20051;-63
2022/06/03 22:14:20;;;;;;;28.20;19.73;;;;;;;19.11;93.84;98117.19;10326951;28;20051;-63
2022/06/03 22:19:19;;;;;;;26.55;20.85;;;;;;;19.12;94.18;98131.19;10327430;28;20046;-63
2022/06/03 22:24:18;;;;;;;31.70;21.98;;;;;;;19.02;94.04;98112.19;10328670;28;20036;-63
2022/06/03 22:29:32;;;;;;;24.48;20.98;;;;;;;18.75;96.42;98103.31;10323609;28;20582;-63
2022/06/03 22:34:49;;;;;;;27.83;21.67;;;;;;;18.74;97.43;98126.13;10321645;28;20144;-63
2022/06/03 22:39:57;;;;;;;22.63;19.33;;;;;;;18.66;97.97;98108.81;10329122;28;20128;-63
2022/06/03 22:44:56;;;;;;;23.83;19.10;;;;;;;18.69;97.64;98119.25;10326297;28;21788;-63
2022/06/03 22:49:54;;;;;;;25.00;19.05;;;;;;;18.58;97.54;98106.41;10327337;28;20868;-63
2022/06/03 22:54:53;;;;;;;22.58;18.48;;;;;;;18.39;98.54;98106.03;10326525;28;20063;-63
2022/06/03 22:59:55;;;;;;;23.67;18.50;;;;;;;18.45;98.34;98110.25;10325037;28;20095;-63
2022/06/03 23:04:58;;;;;;;25.15;22.45;;;;;;;18.31;98.61;98100.13;10326830;28;20441;-63
2022/06/03 23:09:57;;;;;;;27.50;21.35;;;;;;;18.29;98.69;98101.91;10328090;28;20109;-63
2022/06/03 23:14:57;;;;;;;28.35;22.20;;;;;;;18.37;98.59;98123.63;10329238;28;20033;-63
2022/06/03 23:19:58;;;;;;;29.80;23.85;;;;;;;18.39;98.60;98117.41;10312960;28;20198;-63
2022/06/03 23:24:57;;;;;;;32.45;24.52;;;;;;;18.42;98.26;98118.25;10329557;28;20112;-63
2022/06/03 23:29:56;;;;;;;29.23;24.13;;;;;;;18.37;98.09;98105.22;10330248;28;20030;-63
2022/06/03 23:34:55;;;;;;;31.70;23.90;;;;;;;17.97;97.94;98035.38;10327685;28;20071;-63
2022/06/03 23:39:54;;;;;;;30.25;24.70;;;;;;;18.31;97.96;98105.38;10328539;28;20130;-63
2022/06/03 23:50:11;;;;;;;31.40;25.25;;;;;;;18.07;97.88;98078.84;10288952;28;20069;-63
2022/06/03 23:55:11;;;;;;;30.40;23.85;;;;;;;18.09;98.26;98095.44;10308483;28;20784;-63
